createdAt,value
2019-04-16T00:00:46.919Z,9.96
2019-04-16T00:01:46.937Z,10.02
2019-04-16T00:02:48.539Z,9.96
2019-04-16T00:03:46.988Z,9.99
2019-04-16T00:04:47.016Z,9.92
2019-04-16T00:05:47.040Z,9.99
2019-04-16T00:06:47.064Z,9.95
2019-04-16T00:07:47.127Z,9.90
2019-04-16T00:08:47.113Z,9.96
2019-04-16T00:09:47.135Z,9.98
2019-04-16T00:10:47.161Z,9.88
2019-04-16T00:11:47.193Z,9.93
2019-04-16T00:12:47.210Z,9.90
2019-04-16T00:13:47.241Z,9.89
2019-04-16T00:14:47.266Z,9.85
2019-04-16T00:15:47.290Z,9.92
2019-04-16T00:16:47.320Z,9.89
2019-04-16T00:17:48.166Z,9.88
2019-04-16T00:18:57.069Z,9.85
2019-04-16T00:19:47.386Z,9.84
2019-04-16T00:20:47.411Z,9.78
2019-04-16T00:21:47.436Z,9.81
2019-04-16T00:22:47.461Z,9.90
2019-04-16T00:23:47.494Z,9.85
2019-04-16T00:24:47.511Z,9.82
2019-04-16T00:25:47.537Z,9.84
2019-04-16T00:26:47.567Z,9.78
2019-04-16T00:27:47.582Z,9.74
2019-04-16T00:28:47.615Z,9.72
2019-04-16T00:29:47.635Z,9.70
2019-04-16T00:30:47.660Z,9.74
2019-04-16T00:31:47.684Z,9.72
2019-04-16T00:32:47.706Z,9.72
2019-04-16T00:33:47.733Z,9.71
2019-04-16T00:34:47.757Z,9.72
2019-04-16T00:35:47.783Z,9.71
2019-04-16T00:36:48.791Z,9.77
2019-04-16T00:37:51.360Z,9.71
2019-04-16T00:38:47.864Z,9.71
2019-04-16T00:39:47.888Z,9.71
2019-04-16T00:40:47.905Z,9.74
2019-04-16T00:41:47.928Z,9.72
2019-04-16T00:42:47.957Z,9.72
2019-04-16T00:43:47.986Z,9.75
2019-04-16T00:44:48.002Z,9.72
2019-04-16T00:45:48.035Z,9.56
2019-04-16T00:46:48.056Z,9.60
2019-04-16T00:47:51.336Z,9.60
2019-04-16T00:48:48.105Z,9.62
2019-04-16T00:49:48.130Z,9.62
2019-04-16T00:50:48.155Z,9.62
2019-04-16T00:51:48.176Z,9.64
2019-04-16T00:52:48.210Z,9.57
2019-04-16T00:53:48.226Z,9.62
2019-04-16T00:54:48.252Z,9.60
2019-04-16T00:55:48.284Z,9.63
2019-04-16T00:56:48.302Z,9.60
2019-04-16T00:57:49.187Z,9.57
2019-04-16T00:58:49.370Z,9.55
2019-04-16T00:59:48.376Z,9.50
2019-04-16T01:00:48.407Z,9.48
2019-04-16T01:01:48.429Z,9.48
2019-04-16T01:02:48.458Z,9.50
2019-04-16T01:03:48.472Z,9.48
2019-04-16T01:04:48.504Z,9.48
2019-04-16T01:05:48.528Z,9.47
2019-04-16T01:06:48.550Z,9.41
2019-04-16T01:07:48.572Z,9.37
2019-04-16T01:08:54.745Z,9.41
2019-04-16T01:09:48.621Z,9.39
2019-04-16T01:10:48.645Z,9.44
2019-04-16T01:11:49.653Z,9.35
2019-04-16T01:12:48.697Z,9.34
2019-04-16T01:13:48.724Z,9.34
2019-04-16T01:14:48.747Z,9.37
2019-04-16T01:15:48.768Z,9.32
2019-04-16T01:16:48.796Z,9.34
2019-04-16T01:17:48.822Z,9.30
2019-04-16T01:18:48.852Z,9.30
2019-04-16T01:19:48.876Z,9.34
2019-04-16T01:20:48.900Z,9.35
2019-04-16T01:21:48.917Z,9.27
2019-04-16T01:22:48.948Z,9.27
2019-04-16T01:23:49.626Z,9.24
2019-04-16T01:24:51.552Z,9.26
2019-04-16T01:25:49.039Z,9.20
2019-04-16T01:26:49.042Z,9.16
2019-04-16T01:27:49.071Z,9.20
2019-04-16T01:28:49.092Z,9.16
2019-04-16T01:29:49.116Z,9.20
2019-04-16T01:30:49.140Z,9.19
2019-04-16T01:31:49.161Z,9.19
2019-04-16T01:32:49.190Z,9.20
2019-04-16T01:33:49.212Z,9.11
2019-04-16T01:34:49.240Z,9.20
2019-04-16T01:35:51.705Z,9.17
2019-04-16T01:36:51.373Z,9.08
2019-04-16T01:37:49.314Z,9.16
2019-04-16T01:38:49.344Z,9.09
2019-04-16T01:39:49.366Z,9.04
2019-04-16T01:40:50.214Z,9.01
2019-04-16T01:41:50.309Z,8.94
2019-04-16T01:42:49.436Z,8.90
2019-04-16T01:43:49.467Z,9.01
2019-04-16T01:44:49.488Z,8.98
2019-04-16T01:45:49.508Z,8.98
2019-04-16T01:46:49.533Z,8.95
2019-04-16T01:47:49.558Z,8.98
2019-04-16T01:48:49.582Z,8.94
2019-04-16T01:49:49.608Z,9.00
2019-04-16T01:50:49.632Z,8.97
2019-04-16T01:51:49.657Z,8.98
2019-04-16T01:52:50.515Z,8.95
2019-04-16T01:53:52.336Z,8.95
2019-04-16T01:54:51.468Z,8.95
2019-04-16T01:55:49.752Z,8.95
2019-04-16T01:56:49.783Z,8.87
2019-04-16T01:57:49.803Z,8.87
2019-04-16T01:58:49.825Z,8.94
2019-04-16T01:59:49.849Z,8.89
2019-04-16T02:00:49.874Z,8.94
2019-04-16T02:01:49.902Z,8.82
2019-04-16T02:02:49.924Z,8.80
2019-04-16T02:03:49.947Z,8.80
2019-04-16T02:04:52.017Z,8.79
2019-04-16T02:05:54.549Z,8.86
2019-04-16T02:06:50.021Z,8.82
2019-04-16T02:07:50.047Z,8.80
2019-04-16T02:08:50.477Z,8.83
2019-04-16T02:09:50.097Z,8.76
2019-04-16T02:10:50.119Z,8.82
2019-04-16T02:11:50.142Z,8.76
2019-04-16T02:12:50.170Z,8.77
2019-04-16T02:13:50.192Z,8.76
2019-04-16T02:14:51.075Z,8.74
2019-04-16T02:15:50.582Z,8.77
2019-04-16T02:16:50.269Z,8.72
2019-04-16T02:17:50.300Z,8.77
2019-04-16T02:18:50.317Z,8.64
2019-04-16T02:19:50.342Z,8.72
2019-04-16T02:20:50.368Z,8.76
2019-04-16T02:21:50.390Z,8.71
2019-04-16T02:22:50.414Z,8.69
2019-04-16T02:23:50.435Z,8.65
2019-04-16T02:24:50.461Z,8.64
2019-04-16T02:25:51.319Z,8.61
2019-04-16T02:26:54.615Z,8.67
2019-04-16T02:27:50.535Z,8.64
2019-04-16T02:28:50.560Z,8.64
2019-04-16T02:29:53.609Z,8.65
2019-04-16T02:30:50.618Z,8.64
2019-04-16T02:31:51.572Z,8.61
2019-04-16T02:32:50.719Z,8.67
2019-04-16T02:33:50.679Z,8.69
2019-04-16T02:34:50.715Z,8.67
2019-04-16T02:35:50.731Z,8.65
2019-04-16T02:36:50.766Z,8.60
2019-04-16T02:37:50.779Z,8.68
2019-04-16T02:38:53.151Z,8.62
2019-04-16T02:39:50.831Z,8.64
2019-04-16T02:40:52.977Z,8.68
2019-04-16T02:41:57.067Z,8.67
2019-04-16T02:42:50.906Z,8.69
2019-04-16T02:43:50.922Z,8.68
2019-04-16T02:44:50.948Z,8.64
2019-04-16T02:45:56.333Z,8.61
2019-04-16T02:46:50.996Z,8.65
2019-04-16T02:47:51.021Z,8.62
2019-04-16T02:48:51.794Z,8.67
2019-04-16T02:49:56.369Z,8.60
2019-04-16T02:50:51.092Z,8.58
2019-04-16T02:51:51.117Z,8.58
2019-04-16T02:52:52.499Z,8.60
2019-04-16T02:53:54.482Z,8.60
2019-04-16T02:54:51.189Z,8.58
2019-04-16T02:55:51.216Z,8.61
2019-04-16T02:56:52.018Z,8.57
2019-04-16T02:57:51.267Z,8.50
2019-04-16T02:58:51.291Z,8.47
2019-04-16T02:59:51.315Z,8.54
2019-04-16T03:00:51.342Z,8.50
2019-04-16T03:01:51.886Z,8.50
2019-04-16T03:02:53.885Z,8.47
2019-04-16T03:03:55.562Z,8.47
2019-04-16T03:04:51.438Z,8.50
2019-04-16T03:05:51.464Z,8.54
2019-04-16T03:06:51.493Z,8.50
2019-04-16T03:07:51.505Z,8.50
2019-04-16T03:08:51.531Z,8.53
2019-04-16T03:10:01.071Z,8.50
2019-04-16T03:10:51.579Z,8.53
2019-04-16T03:11:51.603Z,8.52
2019-04-16T03:12:52.156Z,8.53
2019-04-16T03:13:52.822Z,8.53
2019-04-16T03:14:51.679Z,8.54
2019-04-16T03:15:51.706Z,8.52
2019-04-16T03:16:51.735Z,8.52
2019-04-16T03:17:51.751Z,8.46
2019-04-16T03:18:51.776Z,8.49
2019-04-16T03:19:52.151Z,8.49
2019-04-16T03:20:55.279Z,8.50
2019-04-16T03:21:51.848Z,8.49
2019-04-16T03:22:51.869Z,8.47
2019-04-16T03:23:51.895Z,8.44
2019-04-16T03:24:51.919Z,8.54
2019-04-16T03:25:51.944Z,8.46
2019-04-16T03:26:51.970Z,8.42
2019-04-16T03:27:54.437Z,8.42
2019-04-16T03:28:52.014Z,8.46
2019-04-16T03:29:52.038Z,8.40
2019-04-16T03:30:52.253Z,8.39
2019-04-16T03:31:57.629Z,8.32
2019-04-16T03:32:52.118Z,8.35
2019-04-16T03:33:52.139Z,8.36
2019-04-16T03:34:53.387Z,8.36
2019-04-16T03:35:52.186Z,8.34
2019-04-16T03:36:52.208Z,8.34
2019-04-16T03:37:52.233Z,8.32
2019-04-16T03:38:52.257Z,8.34
2019-04-16T03:39:52.284Z,8.34
2019-04-16T03:40:55.863Z,8.35
2019-04-16T03:41:55.914Z,8.35
2019-04-16T03:42:52.353Z,8.35
2019-04-16T03:43:52.378Z,8.29
2019-04-16T03:44:52.402Z,8.34
2019-04-16T03:45:52.425Z,8.31
2019-04-16T03:46:52.454Z,8.28
2019-04-16T03:47:52.537Z,8.25
2019-04-16T03:48:55.593Z,8.25
2019-04-16T03:49:52.525Z,8.26
2019-04-16T03:50:52.550Z,8.24
2019-04-16T03:51:52.573Z,8.24
2019-04-16T03:52:52.596Z,8.31
2019-04-16T03:53:52.628Z,8.26
2019-04-16T03:54:54.139Z,8.25
2019-04-16T03:55:54.569Z,8.19
2019-04-16T03:56:52.693Z,8.29
2019-04-16T03:57:52.719Z,8.17
2019-04-16T03:58:52.743Z,8.22
2019-04-16T03:59:52.772Z,8.19
2019-04-16T04:00:52.789Z,8.16
2019-04-16T04:01:52.820Z,8.16
2019-04-16T04:02:55.185Z,8.16
2019-04-16T04:03:54.512Z,8.17
2019-04-16T04:04:52.893Z,8.17
2019-04-16T04:05:52.912Z,8.16
2019-04-16T04:06:52.933Z,8.14
2019-04-16T04:07:55.267Z,8.03
2019-04-16T04:08:53.262Z,8.01
2019-04-16T04:09:54.611Z,8.06
2019-04-16T04:10:53.039Z,8.13
2019-04-16T04:11:53.056Z,8.01
2019-04-16T04:12:53.078Z,7.96
2019-04-16T04:13:53.107Z,8.06
2019-04-16T04:14:54.434Z,8.04
2019-04-16T04:15:54.984Z,7.93
2019-04-16T04:16:53.188Z,7.93
2019-04-16T04:17:53.198Z,7.89
2019-04-16T04:18:53.223Z,7.86
2019-04-16T04:19:53.250Z,7.89
2019-04-16T04:20:53.275Z,7.91
2019-04-16T04:21:53.741Z,7.82
2019-04-16T04:22:56.796Z,7.88
2019-04-16T04:23:53.345Z,7.83
2019-04-16T04:24:53.374Z,7.78
2019-04-16T04:25:53.392Z,7.78
2019-04-16T04:26:53.418Z,7.75
2019-04-16T04:27:53.439Z,7.70
2019-04-16T04:28:53.466Z,7.63
2019-04-16T04:29:53.720Z,7.71
2019-04-16T04:30:53.513Z,7.64
2019-04-16T04:31:53.538Z,7.64
2019-04-16T04:32:53.562Z,7.58
2019-04-16T04:33:53.586Z,7.58
2019-04-16T04:34:53.613Z,7.63
2019-04-16T04:35:53.634Z,7.64
2019-04-16T04:36:58.655Z,7.58
2019-04-16T04:37:53.684Z,7.59
2019-04-16T04:38:53.709Z,7.56
2019-04-16T04:39:53.730Z,7.54
2019-04-16T04:40:53.758Z,7.49
2019-04-16T04:41:56.461Z,7.58
2019-04-16T04:42:53.800Z,7.61
2019-04-16T04:43:53.837Z,7.49
2019-04-16T04:44:53.847Z,7.56
2019-04-16T04:45:53.878Z,7.55
2019-04-16T04:46:53.898Z,7.49
2019-04-16T04:47:53.918Z,7.52
2019-04-16T04:48:55.745Z,7.49
2019-04-16T04:49:53.973Z,7.47
2019-04-16T04:50:53.993Z,7.44
2019-04-16T04:51:54.017Z,7.49
2019-04-16T04:52:54.047Z,7.34
2019-04-16T04:53:54.063Z,7.47
2019-04-16T04:54:54.858Z,7.48
2019-04-16T04:55:54.476Z,7.40
2019-04-16T04:56:56.346Z,7.52
2019-04-16T04:57:54.164Z,7.40
2019-04-16T04:58:54.191Z,7.45
2019-04-16T04:59:54.206Z,7.45
2019-04-16T05:00:54.230Z,7.45
2019-04-16T05:01:54.257Z,7.49
2019-04-16T05:02:54.279Z,7.45
2019-04-16T05:03:54.300Z,7.44
2019-04-16T05:04:54.325Z,7.44
2019-04-16T05:05:56.153Z,7.41
2019-04-16T05:06:57.304Z,7.48
2019-04-16T05:07:54.399Z,7.44
2019-04-16T05:08:54.423Z,7.44
2019-04-16T05:09:54.480Z,7.44
2019-04-16T05:10:59.867Z,7.31
2019-04-16T05:11:54.702Z,7.31
2019-04-16T05:12:54.516Z,7.29
2019-04-16T05:13:56.453Z,7.31
2019-04-16T05:14:57.828Z,7.30
2019-04-16T05:15:54.595Z,7.27
2019-04-16T05:16:54.613Z,7.30
2019-04-16T05:17:54.638Z,7.39
2019-04-16T05:18:54.664Z,7.45
2019-04-16T05:19:54.688Z,7.41
2019-04-16T05:20:54.708Z,7.41
2019-04-16T05:21:54.732Z,7.45
2019-04-16T05:22:57.855Z,7.41
2019-04-16T05:23:57.516Z,7.44
2019-04-16T05:25:01.056Z,7.41
2019-04-16T05:25:54.828Z,7.45
2019-04-16T05:26:56.325Z,7.47
2019-04-16T05:27:54.880Z,7.47
2019-04-16T05:28:54.900Z,7.39
2019-04-16T05:29:54.925Z,7.39
2019-04-16T05:30:54.949Z,7.44
2019-04-16T05:31:57.438Z,7.47
2019-04-16T05:32:54.997Z,7.47
2019-04-16T05:33:55.019Z,7.45
2019-04-16T05:34:55.045Z,7.58
2019-04-16T05:35:55.068Z,7.48
2019-04-16T05:36:55.100Z,7.55
2019-04-16T05:37:55.114Z,7.68
2019-04-16T05:38:55.714Z,7.64
2019-04-16T05:39:58.554Z,7.67
2019-04-16T05:40:55.186Z,7.63
2019-04-16T05:41:55.212Z,7.64
2019-04-16T05:42:55.843Z,7.61
2019-04-16T05:43:55.263Z,7.71
2019-04-16T05:44:55.284Z,7.61
2019-04-16T05:45:55.306Z,7.61
2019-04-16T05:46:55.329Z,7.73
2019-04-16T05:47:55.353Z,7.68
2019-04-16T05:48:55.379Z,7.73
2019-04-16T05:49:58.110Z,7.75
2019-04-16T05:50:59.737Z,7.78
2019-04-16T05:51:55.457Z,7.73
2019-04-16T05:52:55.475Z,7.77
2019-04-16T05:53:55.499Z,7.83
2019-04-16T05:54:55.522Z,7.86
2019-04-16T05:55:57.390Z,7.85
2019-04-16T05:56:55.709Z,7.85
2019-04-16T05:57:58.278Z,7.89
2019-04-16T05:58:55.617Z,7.98
2019-04-16T05:59:55.642Z,7.96
2019-04-16T06:00:55.664Z,7.98
2019-04-16T06:01:57.398Z,7.99
2019-04-16T06:02:55.713Z,8.01
2019-04-16T06:03:55.737Z,8.14
2019-04-16T06:04:56.531Z,8.17
2019-04-16T06:05:56.327Z,8.13
2019-04-16T06:06:55.811Z,8.16
2019-04-16T06:07:55.838Z,8.19
2019-04-16T06:08:56.154Z,8.14
2019-04-16T06:09:55.883Z,8.14
2019-04-16T06:10:57.659Z,8.19
2019-04-16T06:11:55.942Z,8.29
2019-04-16T06:12:55.957Z,8.22
2019-04-16T06:13:55.984Z,8.28
2019-04-16T06:14:56.005Z,8.34
2019-04-16T06:15:56.031Z,8.32
2019-04-16T06:16:56.829Z,8.46
2019-04-16T06:17:56.082Z,8.46
2019-04-16T06:18:56.112Z,8.49
2019-04-16T06:19:56.124Z,8.52
2019-04-16T06:20:56.155Z,8.53
2019-04-16T06:21:56.723Z,8.61
2019-04-16T06:23:00.629Z,8.65
2019-04-16T06:23:56.228Z,8.68
2019-04-16T06:24:56.245Z,8.69
2019-04-16T06:25:56.271Z,8.64
2019-04-16T06:26:56.292Z,8.85
2019-04-16T06:27:56.315Z,9.34
2019-04-16T06:28:59.722Z,9.82
2019-04-16T06:30:00.811Z,10.17
2019-04-16T06:30:56.391Z,10.49
2019-04-16T06:31:56.415Z,10.92
2019-04-16T06:32:56.446Z,11.20
2019-04-16T06:33:56.466Z,11.39
2019-04-16T06:34:56.490Z,11.41
2019-04-16T06:35:56.518Z,11.75
2019-04-16T06:36:56.545Z,11.82
2019-04-16T06:37:56.565Z,11.94
2019-04-16T06:38:57.822Z,11.91
2019-04-16T06:40:00.630Z,12.22
2019-04-16T06:40:56.637Z,12.04
2019-04-16T06:41:56.663Z,11.88
2019-04-16T06:42:56.693Z,12.18
2019-04-16T06:43:59.299Z,12.26
2019-04-16T06:44:56.744Z,12.03
2019-04-16T06:45:56.770Z,12.38
2019-04-16T06:46:56.795Z,12.66
2019-04-16T06:47:56.822Z,12.91
2019-04-16T06:48:56.851Z,12.83
2019-04-16T06:49:56.874Z,12.95
2019-04-16T06:50:56.903Z,12.88
2019-04-16T06:51:59.617Z,12.91
2019-04-16T06:52:56.965Z,13.03
2019-04-16T06:53:57.569Z,13.09
2019-04-16T06:54:57.012Z,13.40
2019-04-16T06:55:57.044Z,13.63
2019-04-16T06:56:57.066Z,13.99
2019-04-16T06:57:57.095Z,14.15
2019-04-16T06:58:58.107Z,14.05
2019-04-16T06:59:59.503Z,14.20
2019-04-16T07:00:57.180Z,14.16
2019-04-16T07:01:57.218Z,13.93
2019-04-16T07:03:02.668Z,13.72
2019-04-16T07:03:59.644Z,14.01
2019-04-16T07:04:58.372Z,13.93
2019-04-16T07:05:57.314Z,13.57
2019-04-16T07:06:57.343Z,13.90
2019-04-16T07:07:57.375Z,13.72
2019-04-16T07:08:57.401Z,13.99
2019-04-16T07:09:57.758Z,14.06
2019-04-16T07:10:57.458Z,14.36
2019-04-16T07:11:57.486Z,14.27
2019-04-16T07:12:57.522Z,14.57
2019-04-16T07:13:57.557Z,14.69
2019-04-16T07:14:57.573Z,14.67
2019-04-16T07:15:57.783Z,14.95
2019-04-16T07:17:00.205Z,14.82
2019-04-16T07:17:57.659Z,14.94
2019-04-16T07:18:57.688Z,15.10
2019-04-16T07:19:57.718Z,15.01
2019-04-16T07:20:57.744Z,14.80
2019-04-16T07:21:57.774Z,14.98
2019-04-16T07:22:57.806Z,14.97
2019-04-16T07:23:58.600Z,14.94
2019-04-16T07:25:03.592Z,14.83
2019-04-16T07:25:57.920Z,15.30
2019-04-16T07:26:58.016Z,15.02
2019-04-16T07:27:58.922Z,14.89
2019-04-16T07:28:59.693Z,14.79
2019-04-16T07:30:00.814Z,14.89
2019-04-16T07:30:58.048Z,15.07
2019-04-16T07:31:58.667Z,15.30
2019-04-16T07:33:00.701Z,15.53
2019-04-16T07:33:58.133Z,15.63
2019-04-16T07:34:58.180Z,15.99
2019-04-16T07:35:58.194Z,16.02
2019-04-16T07:37:00.700Z,16.07
2019-04-16T07:37:58.570Z,16.21
2019-04-16T07:38:58.503Z,16.13
2019-04-16T07:39:58.500Z,16.48
2019-04-16T07:40:58.353Z,16.32
2019-04-16T07:42:09.518Z,16.62
2019-04-16T07:42:59.394Z,16.32
2019-04-16T07:43:58.434Z,16.44
2019-04-16T07:44:58.464Z,16.30
2019-04-16T07:45:58.673Z,15.92
2019-04-16T07:46:58.551Z,16.16
2019-04-16T07:47:58.556Z,16.37
2019-04-16T07:49:59.812Z,16.63
2019-04-16T07:51:01.582Z,16.69
2019-04-16T07:51:58.680Z,17.00
2019-04-16T07:52:58.712Z,16.81
2019-04-16T07:54:01.934Z,16.74
2019-04-16T07:54:58.774Z,17.07
2019-04-16T07:55:59.010Z,16.94
2019-04-16T07:56:58.839Z,16.72
2019-04-16T07:57:58.867Z,16.91
2019-04-16T07:59:01.310Z,17.06
2019-04-16T07:59:58.940Z,16.92
2019-04-16T08:00:58.963Z,17.03
2019-04-16T08:01:58.992Z,17.39
2019-04-16T08:02:59.026Z,17.76
2019-04-16T08:04:00.993Z,18.16
2019-04-16T08:04:59.089Z,17.83
2019-04-16T08:05:59.120Z,17.62
2019-04-16T08:06:59.151Z,17.81
2019-04-16T08:07:59.185Z,17.81
2019-04-16T08:08:59.212Z,17.86
2019-04-16T08:10:02.097Z,17.87
2019-04-16T08:10:59.280Z,17.86
2019-04-16T08:11:59.319Z,17.77
2019-04-16T08:13:00.590Z,17.80
2019-04-16T08:13:59.376Z,17.76
2019-04-16T08:15:12.499Z,17.98
2019-04-16T08:15:59.440Z,18.17
2019-04-16T08:16:59.479Z,18.65
2019-04-16T08:17:59.503Z,18.23
2019-04-16T08:18:59.537Z,18.19
2019-04-16T08:19:59.566Z,18.10
2019-04-16T08:21:05.965Z,18.36
2019-04-16T08:21:59.639Z,18.23
2019-04-16T08:22:59.719Z,18.60
2019-04-16T08:23:59.742Z,18.60
2019-04-16T08:25:02.947Z,18.94
2019-04-16T08:26:03.218Z,18.94
2019-04-16T08:27:00.029Z,19.28
2019-04-16T08:27:59.825Z,19.13
2019-04-16T08:28:59.864Z,19.05
2019-04-16T08:30:03.424Z,19.25
2019-04-16T08:31:00.272Z,19.00
2019-04-16T08:31:59.955Z,18.86
2019-04-16T08:32:59.989Z,18.39
2019-04-16T08:34:00.024Z,18.49
2019-04-16T08:35:00.058Z,18.63
2019-04-16T08:36:00.089Z,18.71
2019-04-16T08:37:00.233Z,18.84
2019-04-16T08:38:00.158Z,18.61
2019-04-16T08:39:00.189Z,19.06
2019-04-16T08:40:00.219Z,19.30
2019-04-16T08:41:00.254Z,19.57
2019-04-16T08:42:00.284Z,19.19
2019-04-16T08:43:00.506Z,19.49
2019-04-16T08:44:03.806Z,20.02
2019-04-16T08:45:00.410Z,19.71
2019-04-16T08:46:00.434Z,20.23
2019-04-16T08:47:00.851Z,20.12
2019-04-16T08:48:01.102Z,19.92
2019-04-16T08:49:00.538Z,19.80
2019-04-16T08:52:00.619Z,19.90
2019-04-16T08:54:01.198Z,20.34
2019-04-16T08:55:00.726Z,20.27
2019-04-16T08:56:00.755Z,20.48
2019-04-16T08:57:00.787Z,20.35
2019-04-16T08:58:06.080Z,20.53
2019-04-16T08:59:01.428Z,20.63
2019-04-16T09:00:00.889Z,20.71
2019-04-16T09:01:01.067Z,20.76
2019-04-16T09:02:00.959Z,21.03
2019-04-16T09:03:01.000Z,21.15
2019-04-16T09:04:02.871Z,21.15
2019-04-16T09:05:05.926Z,21.33
2019-04-16T09:06:03.704Z,21.68
2019-04-16T09:07:11.587Z,21.89
2019-04-16T09:08:12.626Z,21.97
2019-04-16T09:09:12.422Z,22.18
2019-04-16T09:10:10.179Z,21.78
2019-04-16T09:11:03.677Z,20.96
2019-04-16T09:12:01.301Z,21.18
2019-04-16T09:13:03.821Z,21.28
2019-04-16T09:14:01.391Z,21.52
2019-04-16T09:15:01.415Z,21.86
2019-04-16T09:16:01.442Z,21.78
2019-04-16T09:17:05.316Z,21.21
2019-04-16T09:18:04.332Z,21.53
2019-04-16T09:19:01.549Z,20.93
2019-04-16T09:20:04.937Z,21.00
2019-04-16T09:21:01.614Z,20.91
2019-04-16T09:22:01.653Z,21.08
2019-04-16T09:23:01.682Z,20.83
2019-04-16T09:24:08.221Z,20.79
2019-04-16T09:25:01.751Z,21.00
2019-04-16T09:26:13.009Z,21.08
2019-04-16T09:27:01.820Z,21.08
2019-04-16T09:28:02.387Z,21.64
2019-04-16T09:29:08.429Z,21.83
2019-04-16T09:30:01.932Z,21.83
2019-04-16T09:31:01.960Z,21.94
2019-04-16T09:32:01.995Z,22.23
2019-04-16T09:33:02.516Z,22.46
2019-04-16T09:34:05.553Z,22.64
2019-04-16T09:35:09.816Z,22.30
2019-04-16T09:36:02.140Z,22.05
2019-04-16T09:37:02.173Z,21.83
2019-04-16T09:38:02.225Z,21.89
2019-04-16T09:39:02.249Z,21.86
2019-04-16T09:40:15.449Z,22.00
2019-04-16T09:41:02.317Z,22.12
2019-04-16T09:42:02.353Z,22.16
2019-04-16T09:43:15.824Z,22.16
2019-04-16T09:44:02.427Z,21.93
2019-04-16T09:45:05.146Z,21.86
2019-04-16T09:46:10.126Z,21.86
2019-04-16T09:47:05.223Z,22.20
2019-04-16T09:48:03.962Z,22.27
2019-04-16T09:49:04.772Z,22.63
2019-04-16T09:50:02.642Z,22.49
2019-04-16T09:51:02.672Z,22.29
2019-04-16T09:52:04.002Z,22.42
2019-04-16T09:53:02.747Z,22.38
2019-04-16T09:54:02.781Z,22.81
2019-04-16T09:55:02.824Z,22.88
2019-04-16T09:56:02.858Z,23.47
2019-04-16T09:57:02.894Z,23.47
2019-04-16T09:58:06.091Z,23.47
2019-04-16T09:59:02.961Z,23.38
2019-04-16T10:00:03.006Z,23.37
2019-04-16T10:01:03.029Z,23.42
2019-04-16T10:02:03.069Z,23.21
2019-04-16T10:03:03.109Z,23.15
2019-04-16T10:04:03.145Z,22.61
2019-04-16T10:05:03.179Z,22.97
2019-04-16T10:07:03.268Z,22.99
2019-04-16T10:08:03.282Z,22.82
2019-04-16T10:09:03.318Z,22.88
2019-04-16T10:10:03.359Z,22.64
2019-04-16T10:11:06.096Z,22.52
2019-04-16T10:12:05.054Z,22.22
2019-04-16T10:13:03.465Z,22.31
2019-04-16T10:14:03.502Z,22.63
2019-04-16T10:15:03.534Z,22.59
2019-04-16T10:16:03.588Z,22.64
2019-04-16T10:17:03.606Z,22.67
2019-04-16T10:18:03.661Z,22.52
2019-04-16T10:19:07.861Z,22.42
2019-04-16T10:20:03.733Z,22.57
2019-04-16T10:21:03.771Z,22.30
2019-04-16T10:22:03.785Z,22.42
2019-04-16T10:23:03.821Z,22.57
2019-04-16T10:24:03.888Z,22.29
2019-04-16T10:25:03.893Z,22.57
2019-04-16T10:26:03.936Z,22.79
2019-04-16T10:27:04.493Z,22.88
2019-04-16T10:28:05.015Z,23.01
2019-04-16T10:29:05.973Z,22.38
2019-04-16T10:30:04.078Z,22.59
2019-04-16T10:31:04.111Z,22.69
2019-04-16T10:32:04.151Z,22.67
2019-04-16T10:33:04.186Z,22.91
2019-04-16T10:34:04.231Z,23.35
2019-04-16T10:35:04.258Z,23.19
2019-04-16T10:36:05.908Z,23.16
2019-04-16T10:37:04.329Z,23.16
2019-04-16T10:38:04.369Z,23.41
2019-04-16T10:39:04.397Z,23.89
2019-04-16T10:40:05.035Z,23.92
2019-04-16T10:41:04.471Z,23.89
2019-04-16T10:42:04.508Z,23.66
2019-04-16T10:43:04.542Z,23.44
2019-04-16T10:44:04.612Z,23.45
2019-04-16T10:45:04.636Z,23.42
2019-04-16T10:46:04.660Z,23.16
2019-04-16T10:47:04.713Z,23.25
2019-04-16T10:48:04.727Z,23.75
2019-04-16T10:49:04.773Z,23.41
2019-04-16T10:50:04.824Z,23.15
2019-04-16T10:51:04.840Z,23.15
2019-04-16T10:52:04.898Z,23.14
2019-04-16T10:53:04.906Z,23.34
2019-04-16T10:54:04.956Z,23.34
2019-04-16T10:55:04.976Z,23.38
2019-04-16T10:56:05.029Z,23.63
2019-04-16T10:57:05.051Z,23.74
2019-04-16T10:58:05.089Z,23.32
2019-04-16T10:59:05.121Z,23.28
2019-04-16T11:00:05.262Z,23.07
2019-04-16T11:01:05.419Z,23.85
2019-04-16T11:02:09.778Z,24.17
2019-04-16T11:03:05.299Z,24.32
2019-04-16T11:04:07.806Z,24.08
2019-04-16T11:05:05.339Z,23.66
2019-04-16T11:06:05.406Z,23.71
2019-04-16T11:07:05.411Z,23.81
2019-04-16T11:08:07.482Z,23.63
2019-04-16T11:09:05.520Z,23.29
2019-04-16T11:10:05.528Z,23.26
2019-04-16T11:11:05.565Z,23.45
2019-04-16T11:12:06.041Z,23.32
2019-04-16T11:13:05.666Z,23.59
2019-04-16T11:14:05.803Z,23.85
2019-04-16T11:15:05.704Z,24.04
2019-04-16T11:16:05.742Z,24.08
2019-04-16T11:17:05.970Z,24.19
2019-04-16T11:18:05.916Z,24.03
2019-04-16T11:19:05.848Z,24.15
2019-04-16T11:20:06.201Z,23.96
2019-04-16T11:21:05.921Z,24.11
2019-04-16T11:22:05.967Z,24.42
2019-04-16T11:23:07.596Z,24.52
2019-04-16T11:24:06.031Z,24.36
2019-04-16T11:25:06.083Z,24.36
2019-04-16T11:26:06.111Z,24.44
2019-04-16T11:27:06.139Z,24.69
2019-04-16T11:28:06.200Z,24.59
2019-04-16T11:29:06.267Z,24.74
2019-04-16T11:30:06.259Z,24.33
2019-04-16T11:31:06.284Z,24.56
2019-04-16T11:32:06.329Z,24.71
2019-04-16T11:33:06.373Z,24.24
2019-04-16T11:34:06.500Z,24.21
2019-04-16T11:35:06.437Z,24.37
2019-04-16T11:36:18.894Z,24.93
2019-04-16T11:37:08.115Z,25.27
2019-04-16T11:38:06.541Z,25.48
2019-04-16T11:39:06.587Z,25.56
2019-04-16T11:40:06.617Z,25.08
2019-04-16T11:41:06.690Z,24.89
2019-04-16T11:42:06.697Z,24.92
2019-04-16T11:43:06.726Z,25.01
2019-04-16T11:44:14.774Z,24.70
2019-04-16T11:45:06.831Z,24.83
2019-04-16T11:46:07.091Z,25.02
2019-04-16T11:47:06.870Z,25.01
2019-04-16T11:48:07.014Z,24.80
2019-04-16T11:49:06.957Z,25.01
2019-04-16T11:50:07.011Z,24.90
2019-04-16T11:51:07.053Z,24.34
2019-04-16T11:52:07.083Z,24.36
2019-04-16T11:53:07.166Z,24.59
2019-04-16T11:54:08.340Z,24.89
2019-04-16T11:55:07.165Z,24.86
2019-04-16T11:56:07.219Z,24.92
2019-04-16T11:57:07.255Z,24.69
2019-04-16T11:58:07.275Z,24.67
2019-04-16T11:59:07.316Z,25.09
2019-04-16T12:00:08.487Z,24.86
2019-04-16T12:01:07.407Z,24.03
2019-04-16T12:02:07.440Z,24.00
2019-04-16T12:03:07.492Z,24.03
2019-04-16T12:04:07.491Z,24.36
2019-04-16T12:05:07.784Z,24.00
2019-04-16T12:06:07.578Z,23.47
2019-04-16T12:07:07.673Z,23.64
2019-04-16T12:08:07.683Z,23.97
2019-04-16T12:09:07.678Z,23.60
2019-04-16T12:10:07.755Z,23.47
2019-04-16T12:11:07.784Z,23.77
2019-04-16T12:12:07.781Z,24.37
2019-04-16T12:13:07.863Z,24.92
2019-04-16T12:14:10.014Z,24.89
2019-04-16T12:15:07.897Z,25.11
2019-04-16T12:16:07.967Z,24.87
2019-04-16T12:17:07.991Z,24.49
2019-04-16T12:18:08.163Z,24.59
2019-04-16T12:19:08.223Z,25.26
2019-04-16T12:20:08.439Z,25.64
2019-04-16T12:21:08.159Z,25.93
2019-04-16T12:22:08.411Z,25.66
2019-04-16T12:23:08.423Z,25.49
2019-04-16T12:24:08.213Z,25.49
2019-04-16T12:25:08.349Z,25.45
2019-04-16T12:26:09.513Z,25.37
2019-04-16T12:27:08.323Z,25.48
2019-04-16T12:28:12.359Z,25.66
2019-04-16T12:29:08.403Z,25.69
2019-04-16T12:30:08.439Z,25.47
2019-04-16T12:31:08.610Z,25.42
2019-04-16T12:32:08.534Z,25.29
2019-04-16T12:33:09.498Z,25.09
2019-04-16T12:34:08.579Z,25.12
2019-04-16T12:35:08.608Z,25.49
2019-04-16T12:36:13.247Z,25.74
2019-04-16T12:37:08.678Z,25.76
2019-04-16T12:38:11.971Z,25.52
2019-04-16T12:39:09.080Z,25.74
2019-04-16T12:40:08.800Z,25.54
2019-04-16T12:41:08.873Z,25.42
2019-04-16T12:42:08.899Z,24.92
2019-04-16T12:43:08.893Z,25.26
2019-04-16T12:44:08.937Z,25.42
2019-04-16T12:45:09.540Z,25.39
2019-04-16T12:46:09.038Z,25.29
2019-04-16T12:47:09.044Z,25.04
2019-04-16T12:48:09.078Z,24.64
2019-04-16T12:49:09.116Z,24.75
2019-04-16T12:50:09.150Z,24.97
2019-04-16T12:51:09.305Z,25.09
2019-04-16T12:52:15.613Z,24.97
2019-04-16T12:53:09.338Z,25.00
2019-04-16T12:54:09.302Z,24.96
2019-04-16T12:55:09.362Z,25.08
2019-04-16T12:56:09.398Z,25.54
2019-04-16T12:57:10.226Z,25.56
2019-04-16T12:58:09.426Z,25.56
2019-04-16T12:59:09.464Z,25.37
2019-04-16T13:00:09.496Z,25.09
2019-04-16T13:01:09.538Z,24.30
2019-04-16T13:02:13.650Z,24.69
2019-04-16T13:03:09.604Z,24.44
2019-04-16T13:04:09.776Z,24.89
2019-04-16T13:05:09.674Z,25.04
2019-04-16T13:06:09.710Z,24.90
2019-04-16T13:07:09.742Z,25.11
2019-04-16T13:08:09.779Z,25.47
2019-04-16T13:09:09.815Z,25.44
2019-04-16T13:10:09.848Z,25.09
2019-04-16T13:11:09.886Z,25.32